Thursday, March 21, 2019, 3:22 PM CDT
Back to Local

KMEM, Memphis International Airport

Location: Memphis, TN, United States Lat: 35.033
Local Time: 3:22 PM CDT (20:22 GMT) Lon: -89.983
Time Zone: US/Central Elev: 334 ft

Show me the last for .
Show Decoded

2019-03-21 14:54 METAR KMEM 211954Z 31014G19KT 10SM SCT042 15/05 A3008 RMK AO2 SLP185 T01500050 =
2019-03-21 13:54 METAR KMEM 211854Z 33015G21KT 10SM SCT035 15/06 A3008 RMK AO2 SLP185 T01500056 =
2019-03-21 12:54 METAR KMEM 211754Z 33009KT 290V360 10SM FEW030 14/07 A3008 RMK AO2 SLP185
                 T01440067 10144 20050 51001 =
2019-03-21 11:54 METAR KMEM 211654Z 33010KT 10SM FEW025 13/06 A3008 RMK AO2 SLP185 T01330056 =
2019-03-21 10:54 METAR KMEM 211554Z 31009KT 10SM CLR 13/07 A3008 RMK AO2 SLP186 T01280067 =
2019-03-21 09:54 METAR KMEM 211454Z 32009KT 10SM CLR 11/06 A3007 RMK AO2 SLP184 T01110056 51007 =
2019-03-21 08:54 METAR KMEM 211354Z 28005KT 10SM CLR 10/07 A3007 RMK AO2 SLP183 T01000067 =
2019-03-21 07:54 METAR KMEM 211254Z 24005KT 10SM FEW250 07/06 A3006 RMK AO2 SLP179 T00720061 =
2019-03-21 06:54 METAR KMEM 211154Z 23004KT 8SM CLR 05/05 A3005 RMK AO2 SLP177 70026 T00500050
                 10067 20050 56004 =
2019-03-21 05:54 METAR KMEM 211054Z 24004KT 8SM CLR 06/06 A3006 RMK AO2 SLP178 T00560056 =
2019-03-21 04:54 METAR KMEM 210954Z 25004KT 10SM FEW250 06/06 A3006 RMK AO2 SLP179 T00560056 =
2019-03-21 03:54 METAR KMEM 210854Z 25004KT 10SM FEW250 06/06 A3007 RMK AO2 SLP181 T00610056
                 58014 =
2019-03-21 02:54 METAR KMEM 210754Z 24004KT 10SM FEW250 06/06 A3009 RMK AO2 SLP189 T00560056 =
2019-03-21 01:54 METAR KMEM 210654Z 24005KT 10SM CLR 06/06 A3011 RMK AO2 SLP194 T00610061 =
2019-03-21 00:54 METAR KMEM 210554Z 25004KT 10SM FEW080 06/06 A3011 RMK AO2 SLP194 60023
                 T00610061 10094 20061 401830050 58008 =
2019-03-20 23:54 METAR KMEM 210454Z 25003KT 10SM FEW006 BKN041 OVC075 07/07 A3012 RMK AO2 SLP200
                 T00720067 =
2019-03-20 22:54 METAR KMEM 210354Z 25004KT 10SM FEW006 FEW041 SCT150 07/06 A3014 RMK AO2 SLP204
                 T00670061 =
2019-03-20 22:19 METAR KMEM 210319Z 27006KT 10SM FEW006 SCT043 BKN050 07/07 A3014 RMK AO2
                 T00720072 =
2019-03-20 21:54 METAR KMEM 210254Z 23003KT 10SM FEW038 BKN065 BKN150 07/07 A3013 RMK AO2 RAE46
                 SLP203 P0003 60023 T00720067 50006 =
2019-03-20 20:54 METAR KMEM 210154Z 21003KT 7SM RA OVC040 07/07 A3015 RMK AO2 SLP208 P0013
                 T00720067 =
2019-03-20 20:20 METAR KMEM 210120Z 29010KT 10SM RA FEW012 SCT029 OVC043 08/07 A3015 RMK AO2
                 P0005 T00780067 =
2019-03-20 20:05 METAR KMEM 210105Z 31014KT 9SM RA SCT012 BKN028 OVC036 08/07 A3015 RMK AO2 P0002
                 T00780067 =
2019-03-20 19:54 METAR KMEM 210054Z 29015G23KT 8SM RA BKN012 BKN021 OVC028 08/07 A3014 RMK AO2
                 SLP206 P0007 T00830067 =
2019-03-20 19:36 METAR KMEM 210036Z 30008G17KT 8SM RA BKN012 BKN018 OVC045 09/08 A3013 RMK AO2
                 P0003 T00890078 =
2019-03-20 18:54 METAR KMEM 202354Z 31011KT 10SM -RA OVC050 09/08 A3011 RMK AO2 SLP197 P0002
                 60003 T00940083 10172 20094 55001 =
2019-03-20 17:54 METAR KMEM 202254Z 31010KT 10SM -RA OVC060 11/07 A3011 RMK AO2 SLP196 P0001
                 T01060072 =
2019-03-20 16:54 METAR KMEM 202154Z 32013G16KT 10SM -RA OVC075 12/06 A3010 RMK AO2 RAE24B41
                 SLP193 P0000 T01220056 =
2019-03-20 15:54 METAR KMEM 202054Z 27010KT 10SM -RA BKN065 OVC080 15/02 A3012 RMK AO2 RAB29
                 SLP197 P0000 60000 T01500017 56024 $ =
2019-03-20 14:54 METAR KMEM 201954Z 24009KT 10SM BKN070 BKN090 OVC250 16/M01 A3012 RMK AO2 PK WND
                 25029/1925 SLP200 VCSH NE T01611011 =
2019-03-20 13:54 METAR KMEM 201854Z 27010G19KT 10SM BKN070 BKN095 OVC250 17/M01 A3016 RMK AO2
                 SLP213 T01671011 =
2019-03-20 12:54 METAR KMEM 201754Z 26009KT 10SM BKN085 BKN250 17/M02 A3019 RMK AO2 SLP222
                 T01721017 10183 20056 58014 =
2019-03-20 11:54 METAR KMEM 201654Z 21009KT 10SM SCT250 17/M03 A3020 RMK AO2 SLP226 T01721028 =
2019-03-20 10:54 METAR KMEM 201554Z 20009G17KT 170V240 10SM FEW200 SCT250 15/M03 A3022 RMK AO2
                 SLP233 T01501028 =
2019-03-20 09:54 METAR KMEM 201454Z 19006KT 10SM SCT250 14/M02 A3023 RMK AO2 SLP236 T01391022
                 58002 =
2019-03-20 08:54 METAR KMEM 201354Z 19009KT 10SM FEW250 11/M02 A3024 RMK AO2 SLP240 T01061022 =
2019-03-20 07:54 METAR KMEM 201254Z 19007KT 10SM CLR 07/M02 A3023 RMK AO2 SLP237 T00671022 =
2019-03-20 06:54 METAR KMEM 201154Z 18007KT 10SM FEW250 06/M03 A3024 RMK AO2 SLP238 T00561033
                 10100 20050 55000 =
2019-03-20 05:54 METAR KMEM 201054Z 18006KT 10SM CLR 06/M04 A3022 RMK AO2 SLP235 T00561039 =
2019-03-20 04:54 METAR KMEM 200954Z 18007KT 10SM CLR 07/M04 A3023 RMK AO2 SLP237 T00671039 =
2019-03-20 03:54 METAR KMEM 200854Z 18007KT 10SM CLR 08/M04 A3024 RMK AO2 SLP237 T00781044 58014
                 =
2019-03-20 02:54 METAR KMEM 200754Z 18004KT 10SM CLR 07/M02 A3025 RMK AO2 SLP243 T00721022 =
2019-03-20 01:54 METAR KMEM 200654Z 12003KT 10SM CLR 08/M03 A3027 RMK AO2 SLP248 T00831033 =
2019-03-20 00:54 METAR KMEM 200554Z 00000KT 10SM CLR 09/M04 A3028 RMK AO2 SLP252 T00941039 10144
                 20094 401720033 58004 =
2019-03-19 23:54 METAR KMEM 200454Z 08005KT 10SM CLR 09/M03 A3029 RMK AO2 SLP254 T00941033 =
2019-03-19 22:54 METAR KMEM 200354Z 07004KT 10SM CLR 11/M04 A3029 RMK AO2 SLP257 T01111039 =
2019-03-19 21:54 METAR KMEM 200254Z 08003KT 10SM CLR 10/M04 A3029 RMK AO2 SLP257 T01001039 53001
                 =
2019-03-19 20:54 METAR KMEM 200154Z 06006KT 10SM CLR 12/M04 A3029 RMK AO2 SLP255 T01171044 =
2019-03-19 19:54 METAR KMEM 200054Z 06006KT 10SM FEW250 13/M05 A3029 RMK AO2 SLP256 T01281050 =
2019-03-19 18:54 METAR KMEM 192354Z 05007KT 10SM FEW250 14/M05 A3029 RMK AO2 SLP255 T01441050
                 10172 20144 55010 =
2019-03-19 17:54 METAR KMEM 192254Z 04006KT 10SM CLR 16/M04 A3028 RMK AO2 SLP254 T01561039 =
2019-03-19 16:54 METAR KMEM 192154Z 06007KT 10SM CLR 16/M04 A3030 RMK AO2 SLP259 T01611039 =
2019-03-19 15:54 METAR KMEM 192054Z VRB05KT 10SM CLR 17/M04 A3031 RMK AO2 SLP264 T01671039 56029
                 =
2019-03-19 14:54 METAR KMEM 191954Z 06012KT 10SM CLR 16/M04 A3032 RMK AO2 SLP267 T01611044 =
2019-03-19 13:54 METAR KMEM 191854Z 07007KT 10SM CLR 16/M04 A3037 RMK AO2 SLP283 T01561044 =
2019-03-19 12:54 METAR KMEM 191754Z 10008KT 10SM CLR 14/M06 A3040 RMK AO2 SLP294 T01441061 10144
                 20039 58009 =
2019-03-19 11:54 METAR KMEM 191654Z 10008KT 10SM CLR 13/M06 A3042 RMK AO2 SLP301 T01331061 =
2019-03-19 10:54 METAR KMEM 191554Z 14007KT 10SM FEW250 12/M06 A3043 RMK AO2 SLP306 T01221061 =
2019-03-19 09:54 METAR KMEM 191454Z 11011KT 10SM FEW250 11/M06 A3043 RMK AO2 SLP303 T01111061
                 51014 =
2019-03-19 08:54 METAR KMEM 191354Z 12007KT 10SM SCT250 08/M04 A3042 RMK AO2 SLP301 T00831044 =
2019-03-19 07:54 METAR KMEM 191254Z VRB03KT 10SM FEW250 05/M03 A3040 RMK AO2 SLP295 T00501033 =
2019-03-19 06:54 METAR KMEM 191154Z 08004KT 10SM FEW250 04/M03 A3038 RMK AO2 SLP289 T00391033
                 10078 20033 53015 =
2019-03-19 05:54 METAR KMEM 191054Z 09003KT 10SM SCT250 04/M03 A3036 RMK AO2 SLP281 T00391033 =
2019-03-19 04:54 METAR KMEM 190954Z 09006KT 10SM FEW250 05/M04 A3034 RMK AO2 SLP275 T00501039 =
2019-03-19 03:54 METAR KMEM 190854Z 10005KT 10SM CLR 07/M04 A3034 RMK AO2 SLP274 T00671044 58007
                 =
2019-03-19 02:54 METAR KMEM 190754Z 10004KT 10SM CLR 07/M04 A3035 RMK AO2 SLP279 T00671039 =
2019-03-19 01:54 METAR KMEM 190654Z 10005KT 10SM CLR 07/M03 A3036 RMK AO2 SLP281 T00671028 =
2019-03-19 00:54 METAR KMEM 190554Z 00000KT 10SM CLR 08/M03 A3036 RMK AO2 SLP280 T00781028 10122
                 20078 401560067 56007 =
2019-03-18 23:54 METAR KMEM 190454Z 07005KT 10SM CLR 09/M03 A3036 RMK AO2 SLP281 T00891028 =
2019-03-18 22:54 METAR KMEM 190354Z 09006KT 10SM CLR 08/M02 A3037 RMK AO2 SLP284 T00831022 =
2019-03-18 21:54 METAR KMEM 190254Z 07005KT 10SM CLR 09/M02 A3038 RMK AO2 SLP287 T00891022 53010
                 =
2019-03-18 20:54 METAR KMEM 190154Z 05006KT 10SM CLR 10/M02 A3036 RMK AO2 SLP281 T01001022 =
2019-03-18 19:54 METAR KMEM 190054Z 05009KT 10SM FEW250 12/M03 A3036 RMK AO2 SLP281 T01171028 =
2019-03-18 18:54 METAR KMEM 182354Z 02008KT 10SM FEW250 12/M04 A3035 RMK AO2 SLP277 T01221044
                 10156 20117 53002 =
2019-03-18 17:54 METAR KMEM 182254Z 03009KT 10SM FEW050 FEW250 14/M02 A3034 RMK AO2 SLP272
                 T01391022 =
2019-03-18 16:54 METAR KMEM 182154Z 01010KT 10SM FEW050 FEW250 15/M02 A3033 RMK AO2 SLP271
                 T01501017 =
2019-03-18 15:54 METAR KMEM 182054Z 05008KT 10SM FEW090 SCT250 16/M03 A3034 RMK AO2 SLP274
                 T01561028 56021 =
2019-03-18 14:54 METAR KMEM 181954Z 36009KT 10SM FEW100 SCT250 15/M02 A3035 RMK AO2 SLP277
                 T01501022 =
2019-03-18 13:54 METAR KMEM 181854Z 07007KT 10SM FEW100 SCT140 SCT250 14/M01 A3038 RMK AO2 SLP286
                 T01391006 =
2019-03-18 12:54 METAR KMEM 181754Z 09009KT 10SM FEW090 SCT120 SCT250 12/M02 A3040 RMK AO2 PK WND
                 09026/1744 SLP296 T01171017 10122 20067 58004 =
2019-03-18 11:54 METAR KMEM 181654Z 10010KT 10SM SCT095 BKN120 BKN250 10/M03 A3042 RMK AO2 SLP302
                 T01001033 =
2019-03-18 10:54 METAR KMEM 181554Z 08007KT 10SM OVC085 09/M02 A3043 RMK AO2 PK WND 19027/1526
                 SLP305 T00891017 =
2019-03-18 09:54 METAR KMEM 181454Z 09010KT 10SM BKN085 OVC120 08/M02 A3042 RMK AO2 SLP300
                 T00831017 51020 =
2019-03-18 08:54 METAR KMEM 181354Z 07011KT 10SM BKN090 BKN120 BKN250 08/M01 A3040 RMK AO2 SLP295
                 T00781011 =
2019-03-18 07:54 METAR KMEM 181254Z 06009KT 10SM BKN085 BKN120 07/M01 A3038 RMK AO2 SLP288
                 T00721011 =
2019-03-18 06:54 METAR KMEM 181154Z 06011KT 10SM BKN090 BKN120 07/M02 A3036 RMK AO2 SLP280
                 T00671017 10094 20067 53021 =
2019-03-18 05:54 METAR KMEM 181054Z 06007KT 10SM BKN095 BKN110 07/M02 A3033 RMK AO2 SLP269
                 T00721017 =
2019-03-18 04:54 METAR KMEM 180954Z 06007KT 10SM CLR 07/M02 A3030 RMK AO2 SLP260 T00721022 =
2019-03-18 03:54 METAR KMEM 180854Z 05008KT 10SM CLR 08/M02 A3029 RMK AO2 SLP257 T00781022 50002
                 =
2019-03-18 02:54 METAR KMEM 180754Z 06007KT 10SM CLR 08/M02 A3030 RMK AO2 SLP258 T00831022 =
2019-03-18 01:54 METAR KMEM 180654Z 05008KT 10SM CLR 09/00 A3030 RMK AO2 SLP258 T00890000 =
2019-03-18 00:54 METAR KMEM 180554Z 05005KT 10SM FEW095 08/01 A3029 RMK AO2 SLP255 T00780011
                 10150 20078 401830022 51007 =
2019-03-17 23:54 METAR KMEM 180454Z 00000KT 10SM FEW100 09/01 A3029 RMK AO2 SLP255 T00940011 =
2019-03-17 22:54 METAR KMEM 180354Z 00000KT 10SM CLR 09/02 A3028 RMK AO2 SLP252 T00940017 =
2019-03-17 21:54 METAR KMEM 180254Z 21004KT 10SM CLR 09/01 A3027 RMK AO2 SLP249 T00940011 53006 =
2019-03-17 20:54 METAR KMEM 180154Z 03003KT 10SM CLR 13/M01 A3026 RMK AO2 SLP246 T01331011 =
2019-03-17 19:54 METAR KMEM 180054Z 33003KT 10SM CLR 15/M02 A3025 RMK AO2 SLP244 T01501017 =
2019-03-17 18:54 METAR KMEM 172354Z 32004KT 10SM CLR 14/M01 A3025 RMK AO2 SLP242 T01441011 10183
                 20144 55000 =
2019-03-17 17:54 METAR KMEM 172254Z 31006KT 10SM FEW036 17/M01 A3024 RMK AO2 SLP241 T01671006 =
2019-03-17 16:54 METAR KMEM 172154Z 31010KT 280V360 10SM FEW036 18/M01 A3025 RMK AO2 SLP242
                 T01781011 =
2019-03-17 15:54 METAR KMEM 172054Z 29007KT 10SM CLR 18/00 A3025 RMK AO2 SLP243 T01780000 56026 =
2019-03-17 14:54 METAR KMEM 171954Z 23006KT 10SM CLR 17/00 A3026 RMK AO2 SLP248 T01670000 =
2019-03-17 13:54 METAR KMEM 171854Z 29012KT 10SM CLR 17/00 A3030 RMK AO2 SLP259 T01670000 =
2019-03-17 12:54 METAR KMEM 171754Z 29008KT 10SM CLR 16/M01 A3033 RMK AO2 SLP269 T01611011 10161
                 20022 58013 =
2019-03-17 11:54 METAR KMEM 171654Z 30007G15KT 10SM CLR 16/M03 A3035 RMK AO2 SLP276 T01561028 =
2019-03-17 10:54 METAR KMEM 171554Z 31004KT 10SM CLR 14/M03 A3037 RMK AO2 SLP283 T01391028 =
2019-03-17 09:54 METAR KMEM 171454Z 21006KT 10SM CLR 11/M03 A3037 RMK AO2 SLP282 T01111033 51011
                 =
2019-03-17 08:54 METAR KMEM 171354Z 18004KT 10SM CLR 08/02 A3035 RMK AO2 SLP278 T00780017 =
2019-03-17 07:54 METAR KMEM 171254Z 00000KT 10SM CLR 03/01 A3035 RMK AO2 SLP278 T00330006 =
2019-03-17 06:54 METAR KMEM 171154Z 00000KT 10SM CLR 02/M01 A3033 RMK AO2 SLP273 T00221006 10061
                 20022 53007 =
2019-03-17 05:54 METAR KMEM 171054Z 00000KT 10SM CLR 03/M01 A3032 RMK AO2 SLP268 T00281006 =
2019-03-17 04:54 METAR KMEM 170954Z 00000KT 10SM CLR 03/00 A3031 RMK AO2 SLP263 T00280000 =
2019-03-17 03:54 METAR KMEM 170854Z 00000KT 10SM CLR 03/M01 A3031 RMK AO2 SLP264 T00281006 58006
                 =
2019-03-17 02:54 METAR KMEM 170754Z 00000KT 10SM CLR 04/M01 A3032 RMK AO2 SLP269 T00441006 =
2019-03-17 01:54 METAR KMEM 170654Z 00000KT 10SM CLR 05/M01 A3033 RMK AO2 SLP269 T00501011 =
2019-03-17 00:54 METAR KMEM 170554Z 00000KT 10SM CLR 06/M01 A3033 RMK AO2 SLP270 T00561011 10111
                 20056 401440039 58007 =
2019-03-16 23:54 METAR KMEM 170454Z 00000KT 10SM SCT250 08/M02 A3034 RMK AO2 SLP273 T00781017 =
2019-03-16 22:54 METAR KMEM 170354Z 00000KT 10SM BKN250 07/M01 A3034 RMK AO2 SLP274 T00721011 =
2019-03-16 21:54 METAR KMEM 170254Z 07004KT 10SM SCT250 09/M02 A3035 RMK AO2 SLP277 T00891022
                 50004 =
2019-03-16 20:54 METAR KMEM 170154Z 06006KT 10SM SCT250 09/M03 A3036 RMK AO2 SLP279 T00941028 =
2019-03-16 19:54 METAR KMEM 170054Z 01006KT 10SM FEW250 10/M03 A3034 RMK AO2 SLP274 T01001028 =
2019-03-16 18:54 METAR KMEM 162354Z 01008KT 10SM FEW250 11/M02 A3034 RMK AO2 SLP273 T01111022
                 10144 20111 55002 =
2019-03-16 17:54 METAR KMEM 162254Z 35009KT 10SM CLR 13/M03 A3033 RMK AO2 SLP271 T01281033 =
2019-03-16 16:54 METAR KMEM 162154Z 35009KT 10SM FEW250 13/M03 A3034 RMK AO2 SLP273 T01331033 =
2019-03-16 15:54 METAR KMEM 162054Z 30007KT 270V340 10SM FEW250 14/M03 A3034 RMK AO2 SLP275
                 T01391033 56026 =
2019-03-16 14:54 METAR KMEM 161954Z 04005KT 10SM CLR 13/M05 A3036 RMK AO2 SLP281 T01331050 =
2019-03-16 13:54 METAR KMEM 161854Z 05008KT 10SM FEW250 13/M05 A3039 RMK AO2 SLP290 T01331050 =
2019-03-16 12:54 METAR KMEM 161754Z 02007G15KT 340V050 10SM SCT250 13/M04 A3042 RMK AO2 SLP301
                 T01281044 10133 20039 58015 =
2019-03-16 11:54 METAR KMEM 161654Z 02008KT 10SM SCT250 12/M05 A3044 RMK AO2 SLP309 T01221050 =
2019-03-16 10:54 METAR KMEM 161554Z 02008KT 10SM SCT250 11/M06 A3045 RMK AO2 SLP312 T01111061 =
2019-03-16 09:54 METAR KMEM 161454Z 04008KT 10SM SCT250 10/M06 A3046 RMK AO2 SLP315 T01001056
                 51016 =
2019-03-16 08:54 METAR KMEM 161354Z 05004KT 10SM SCT250 08/M03 A3046 RMK AO2 SLP313 T00831028 =
2019-03-16 07:54 METAR KMEM 161254Z 36003KT 10SM BKN250 05/M04 A3042 RMK AO2 SLP303 T00501039 =
2019-03-16 06:54 METAR KMEM 161154Z 00000KT 10SM FEW250 04/M04 A3042 RMK AO2 SLP300 T00391039
                 10078 20039 53020 =
2019-03-16 05:54 METAR KMEM 161054Z 01004KT 10SM FEW250 04/M04 A3039 RMK AO2 SLP291 T00441039 =
2019-03-16 04:54 METAR KMEM 160954Z 01008KT 10SM CLR 05/M04 A3036 RMK AO2 SLP281 T00501039 =
2019-03-16 03:54 METAR KMEM 160854Z 01009KT 10SM CLR 06/M04 A3036 RMK AO2 SLP280 T00561039 58000
                 =
2019-03-16 02:54 METAR KMEM 160754Z 01008KT 10SM CLR 06/M04 A3036 RMK AO2 SLP282 T00611039 =
2019-03-16 01:54 METAR KMEM 160654Z 01008KT 10SM CLR 07/M03 A3036 RMK AO2 SLP280 T00721033 =
2019-03-16 00:54 METAR KMEM 160554Z 01008KT 10SM CLR 08/M04 A3036 RMK AO2 SLP280 T00781039 10106
                 20072 401440061 51008 =
2019-03-15 23:54 METAR KMEM 160454Z 35006KT 10SM CLR 07/M02 A3035 RMK AO2 SLP277 T00721022 =
2019-03-15 22:54 METAR KMEM 160354Z 32005KT 10SM FEW250 08/M02 A3034 RMK AO2 SLP275 T00831017 =
2019-03-15 21:54 METAR KMEM 160254Z 32005KT 10SM FEW250 08/M01 A3033 RMK AO2 SLP272 T00831011
                 53017 =
2019-03-15 20:54 METAR KMEM 160154Z 32007KT 10SM SCT250 09/M02 A3032 RMK AO2 SLP267 T00941022 =
2019-03-15 19:54 METAR KMEM 160054Z 31003KT 10SM BKN250 11/M03 A3029 RMK AO2 SLP257 T01061028 =
2019-03-15 18:54 METAR KMEM 152354Z 32006KT 10SM SCT250 11/M03 A3028 RMK AO2 SLP254 T01061028
                 10144 20106 53012 =
2019-03-15 17:54 METAR KMEM 152254Z 32013G18KT 10SM FEW046 SCT250 13/M03 A3026 RMK AO2 SLP248
                 T01281028 =
2019-03-15 16:54 METAR KMEM 152154Z 33010G17KT 10SM FEW047 FEW250 14/M01 A3025 RMK AO2 SLP244
                 T01391006 =
2019-03-15 15:54 METAR KMEM 152054Z 29014G21KT 10SM FEW047 FEW250 14/00 A3024 RMK AO2 SLP242
                 T01390000 58008 =
2019-03-15 14:54 METAR KMEM 151954Z 31013G19KT 10SM FEW047 FEW250 13/01 A3025 RMK AO2 SLP244
                 T01330011 =
2019-03-15 13:54 METAR KMEM 151854Z 30014G17KT 10SM SCT043 SCT250 13/02 A3026 RMK AO2 SLP247
                 T01280017 =
2019-03-15 12:54 METAR KMEM 151754Z 32010G15KT 10SM FEW038 SCT250 12/02 A3027 RMK AO2 SLP250
                 T01170017 10122 20061 50014 $ =
2019-03-15 11:54 METAR KMEM 151654Z 32012KT 10SM SCT038 11/02 A3027 RMK AO2 SLP250 T01060017 =
2019-03-15 11:29 METAR KMEM 151629Z 32011G17KT 10SM SCT035 09/01 A3027 RMK AO2 SCT V BKN
                 T00940006 =
2019-03-15 10:54 METAR KMEM 151554Z 31015G21KT 10SM BKN035 09/01 A3026 RMK AO2 SLP247 T00890006 =
2019-03-15 09:54 METAR KMEM 151454Z 32013G21KT 10SM OVC035 08/01 A3023 RMK AO2 SLP235 T00830006
                 53027 =
2019-03-15 09:15 METAR KMEM 151415Z 30011KT 10SM BKN038 BKN100 OVC200 08/01 A3021 RMK AO2
                 T00830011 =
2019-03-15 08:54 METAR KMEM 151354Z 30013G20KT 10SM BKN040 BKN100 BKN250 08/01 A3020 RMK AO2
                 SLP225 T00780006 =
2019-03-15 08:49 METAR KMEM 151349Z 29014KT 10SM BKN040 BKN100 BKN250 08/01 A3020 RMK AO2 =
2019-03-15 07:54 METAR KMEM 151254Z COR 31007KT 10SM FEW100 FEW250 07/01 A3017 RMK AO2 SLP217
                 T00720006 =
2019-03-15 06:54 METAR KMEM 151154Z 31007KT 290V350 10SM FEW250 06/00 A3015 RMK AO2 SLP207 70002
                 T00610000 10106 20061 53026 =
2019-03-15 05:54 METAR KMEM 151054Z 30012KT 10SM FEW250 07/01 A3011 RMK AO2 SLP196 T00720006 =
2019-03-15 04:54 METAR KMEM 150954Z 30009KT 10SM FEW250 08/01 A3008 RMK AO2 SLP186 T00780011 =
2019-03-15 03:54 METAR KMEM 150854Z 30014KT 10SM BKN250 08/01 A3007 RMK AO2 SLP181 T00830011
                 50005 =
2019-03-15 02:54 METAR KMEM 150754Z 30011KT 10SM SCT250 09/01 A3007 RMK AO2 SLP181 T00890011 =
2019-03-15 01:54 METAR KMEM 150654Z 29010KT 10SM BKN250 10/02 A3007 RMK AO2 SLP179 T01000017 =
2019-03-15 00:54 METAR KMEM 150554Z 31008KT 10SM BKN250 11/03 A3005 RMK AO2 SLP174 T01060028
                 10183 20106 402330106 51021 =
2019-03-14 23:54 METAR KMEM 150454Z 28012G21KT 10SM BKN240 13/02 A3003 RMK AO2 SLP168 T01280022 =
2019-03-14 22:54 METAR KMEM 150354Z 29009G19KT 10SM SCT200 13/03 A3002 RMK AO2 SLP162 T01330028 =
2019-03-14 21:54 METAR KMEM 150254Z 29011KT 10SM CLR 14/04 A2999 RMK AO2 SLP153 T01440039 51038 =
2019-03-14 20:54 METAR KMEM 150154Z 27008KT 10SM CLR 16/04 A2995 RMK AO2 SLP141 T01610044 =
2019-03-14 19:54 METAR KMEM 150054Z 25010KT 10SM CLR 17/04 A2992 RMK AO2 SLP129 T01670044 =
2019-03-14 18:54 METAR KMEM 142354Z 25012G24KT 10SM FEW085 18/03 A2988 RMK AO2 SLP114 T01830028
                 10233 20183 53027 =
2019-03-14 17:54 METAR KMEM 142254Z 26009G23KT 10SM FEW085 21/05 A2984 RMK AO2 SLP102 T02060050 =
2019-03-14 16:54 METAR KMEM 142154Z 25012G21KT 10SM SCT085 21/06 A2982 RMK AO2 PK WND 22026/2115
                 SLP096 T02110061 =
2019-03-14 15:54 METAR KMEM 142054Z 24020G25KT 10SM SCT080 BKN250 22/07 A2979 RMK AO2 PK WND
                 24030/2042 SLP086 T02170072 53005 =
2019-03-14 14:54 METAR KMEM 141954Z 23017G31KT 10SM SCT070 BKN250 22/08 A2978 RMK AO2 PK WND
                 19026/1946 SLP081 T02220078 =
2019-03-14 13:54 METAR KMEM 141854Z 22024G30KT 10SM SCT065 BKN250 23/09 A2978 RMK AO2 PK WND
                 23034/1757 SLP081 T02280094 =
2019-03-14 12:54 METAR KMEM 141754Z 23021G29KT 10SM FEW060 SCT090 23/11 A2978 RMK AO2 PK WND
                 23033/1728 SLP080 60002 T02280106 10233 20200 51013 =
2019-03-14 11:54 METAR KMEM 141654Z 23013G32KT 10SM FEW038 FEW100 SCT250 23/11 A2977 RMK AO2 PK
                 WND 23033/1611 SLP076 T02280111 =
2019-03-14 10:54 METAR KMEM 141554Z 22017G32KT 10SM FEW020 SCT100 23/16 A2976 RMK AO2 PK WND
                 21035/1457 SLP073 T02280161 =
2019-03-14 10:44 METAR KMEM 141544Z 23018G27KT 10SM FEW018 SCT035 SCT110 23/17 A2975 RMK AO2 PK
                 WND 21035/1457 T02280167 =
2019-03-14 10:14 METAR KMEM 141514Z 20022G31KT 10SM BKN018 BKN027 BKN100 22/19 A2974 RMK AO2 PK
                 WND 21035/1457 BKN018 V SCT T02220194 =
2019-03-14 09:54 METAR KMEM 141454Z 20018G27KT 10SM SCT018 BKN045 BKN110 BKN250 22/19 A2974 RMK
                 AO2 PK WND 22033/1434 SLP067 60002 T02170194 53010 =
2019-03-14 08:54 METAR KMEM 141354Z 19015G21KT 10SM FEW027 SCT045 BKN110 BKN250 20/19 A2973 RMK
                 AO2 PK WND 19026/1341 RAE48 SLP063 P0000 T02000189 $ =
2019-03-14 07:54 METAR KMEM 141254Z 20014G24KT 10SM -RA FEW027 BKN070 BKN110 OVC250 21/19 A2971
                 RMK AO2 PK WND 19036/1231 LTG DSNT S RAB15 SLP059 P0002 T02060189 $ =
2019-03-14 07:41 METAR KMEM 141241Z 20018G31KT 5SM R36L/5500VP6000FT -RA BR SCT040 BKN060 BKN100
                 BKN250 21/19 A2971 RMK AO2 PK WND 19036/1231 LTG DSNT S AND SW RAB15 P0001
                 T02110189 $ =
2019-03-14 06:54 METAR KMEM 141154Z 20018G25KT 10SM BKN027 OVC035 22/18 A2971 RMK AO2 PK WND
                 17039/1122 SLP057 60001 70160 T02220183 10222 20183 53009 $ =
2019-03-14 05:54 METAR KMEM 141054Z 18023G33KT 10SM BKN029 BKN035 22/18 A2966 RMK AO2 PK WND
                 18040/1000 SLP042 T02220183 $ =
2019-03-14 04:54 METAR KMEM 140954Z 19024G33KT 10SM BKN029 BKN037 OVC060 22/18 A2967 RMK AO2 PK
                 WND 18033/0952 SLP044 T02220183 $ =
2019-03-14 03:54 METAR KMEM 140854Z 19020G25KT 10SM BKN026 BKN048 BKN075 21/19 A2968 RMK AO2 PK
                 WND 18033/0759 SLP048 60001 T02110189 58011 $ =
2019-03-14 03:49 METAR KMEM 140849Z 18018G25KT 10SM BKN026 BKN048 OVC075 21/19 A2969 RMK AO2 PK
                 WND 18033/0759 $ =
2019-03-14 03:13 METAR KMEM 140813Z 19017G27KT 10SM FEW029 BKN038 BKN045 21/19 A2970 RMK AO2 PK
                 WND 18033/0759 T02110189 $ =
2019-03-14 02:54 METAR KMEM 140754Z 19019G32KT 10SM FEW015 SCT049 BKN060 21/19 A2971 RMK AO2 PK
                 WND 18033/0742 SLP057 T02110189 $ =
2019-03-14 01:54 METAR KMEM 140654Z 19017G26KT 10SM FEW011 FEW032 BKN055 OVC130 21/19 A2972 RMK
                 AO2 PK WND 19033/0624 RAE49 SLP059 P0001 T02060189 $ =
2019-03-14 01:02 METAR KMEM 140602Z 20014G20KT 8SM RA SCT011 BKN042 OVC070 19/18 A2972 RMK AO2
                 P0000 T01890183 $ =
2019-03-14 00:54 METAR KMEM 140554Z 17013G19KT 4SM RA BR FEW011 BKN025 OVC050 18/18 A2972 RMK AO2
                 TSE35 SLP062 P0004 60159 T01780178 10217 20178 402280133 50017 $ =
2019-03-14 00:49 METAR KMEM 140549Z 18010KT 8SM -RA FEW011 BKN025 OVC050 18/18 A2973 RMK AO2
                 TSE35 P0004 $ =
2019-03-14 00:35 METAR KMEM 140535Z 23006KT 8SM -RA FEW011 BKN030 OVC041 18/18 A2973 RMK AO2
                 TSE35 OCNL LTGIC DSNT NE CB DSNT NE MOV NE P0004 T01780178 $ =
2019-03-14 00:10 METAR KMEM 140510Z 22008KT 190V260 6SM -TSRA BR BKN011 OVC037CB 18/18 A2973 RMK
                 AO2 LTG DSNT N-SE OCNL LTGIC ALQDS TS ALQDS MOV NE P0000 T01780178 $ =
2019-03-13 23:54 METAR KMEM 140454Z 23008G19KT 3SM TSRA BR SCT020 BKN031 OVC050CB 18/18 A2973 RMK
                 AO2 LTG DSNT ALQDS SLP065 FRQ LTGICCG S-W-N TS S-W-N MOV NE P0062 T01780178 $ =
2019-03-13 23:41 METAR KMEM 140441Z 20007G16KT 9SM TSRA SCT020 BKN037 OVC075CB 18/18 A2972 RMK
                 AO2 LTG DSNT ALQDS FRQ LTGICCG S-W-N TS S-W-N MOV NE P0057 T01830178 $ =
2019-03-13 22:54 METAR KMEM 140354Z 21009G23KT 3SM R36L/3000VP6000FT +TSRA BR FEW011 BKN026
                 OVC055CB 19/19 A2971 RMK AO2 LTG DSNT ALQDS SLP058 FRQ LTGICCG ALQDS TS ALQDS
                 MOV NE P0065 T01890189 $ =
2019-03-13 22:34 METAR KMEM 140334Z 19014KT 6SM TSRA BR FEW013 BKN021 OVC033CB 19/18 A2970 RMK
                 AO2 LTG DSNT ALQDS OCNL LTGIC ALQDS TS ALQDS MOV NE P0049 T01890183 $ =
2019-03-13 21:54 METAR KMEM 140254Z 16009KT 5SM TSRA BR BKN033 BKN044CB OVC075 19/18 A2967 RMK
                 AO2 PK WND 16029/0158 LTG DSNT ALQDS SLP045 OCNL LTGIC ALQDS TS ALQDS MOV NE
                 P0024 60028 T01940178 50004 $ =
2019-03-13 20:54 METAR KMEM 140154Z 16024G33KT 9SM -TSRA SCT031 BKN043CB OVC110 21/17 A2968 RMK
                 AO2 PK WND 15038/0143 LTG DSNT ALQDS RAB03 TSB03 SLP048 OCNL LTGIC SW TS SW MOV
                 NE P0004 T02060172 $ =
2019-03-13 20:03 METAR KMEM 140103Z 16025G33KT 10SM -TSRA FEW030 SCT080CB BKN100 OVC140 21/17
                 A2968 RMK AO2 PK WND 16033/0103 LTG DSNT SW AND W RAB03 TSB03 OCNL LTGIC SW-W TS
                 SW-W P0000 T02110167 $ =
2019-03-13 19:54 METAR KMEM 140054Z 16020G32KT 10SM FEW032 SCT075 BKN110 OVC140 22/16 A2967 RMK
                 AO2 PK WND 14042/0043 LTG DSNT W AND NW SLP045 T02170161 $ =
2019-03-13 18:54 METAR KMEM 132354Z 14026G38KT 10SM SCT036 BKN060 BKN070 OVC160 22/16 A2966 RMK
                 AO2 PK WND 16038/2353 SLP041 T02170161 10228 20194 56039 $ =
2019-03-13 17:54 METAR KMEM 132254Z 14023G30KT 10SM SCT031 BKN060 BKN190 OVC250 22/16 A2967 RMK
                 AO2 PK WND 16034/2211 SLP046 T02220161 $ =
2019-03-13 16:54 METAR KMEM 132154Z 16021G31KT 10SM FEW029 FEW070 BKN250 22/16 A2972 RMK AO2 PK
                 WND 16031/2150 SLP062 T02220161 $ =
2019-03-13 15:54 METAR KMEM 132054Z 15020G26KT 10SM SCT029 BKN040 OVC070 22/16 A2978 RMK AO2
                 SLP081 T02170161 58030 $ =
2019-03-13 15:45 METAR KMEM 132045Z 15018G26KT 10SM SCT025 BKN035 OVC060 21/16 A2979 RMK AO2
                 PRESFR T02060156 $ =
2019-03-13 14:54 METAR KMEM 131954Z 16016G26KT 10SM OVC023 19/15 A2982 RMK AO2 PK WND 17028/1907
                 SLP097 T01940150 $ =
2019-03-13 13:54 METAR KMEM 131854Z 16020G26KT 10SM BKN026 OVC031 20/14 A2985 RMK AO2 PK WND
                 16027/1807 SLP104 T02000144 $ =
2019-03-13 12:54 METAR KMEM 131754Z COR 17022G30KT 10SM OVC029 21/14 A2987 RMK AO2 PK WND
                 18030/1727 PRESFR SLP111 T02060144 10211 20172 58009 $ =
2019-03-13 12:24 METAR KMEM 131724Z 19021G29KT 10SM BKN032 OVC150 21/14 A2990 RMK AO2 PK WND
                 18029/1716 T02060139 $ =
2019-03-13 11:54 METAR KMEM 131654Z 17017G23KT 10SM FEW030 BKN150 OVC250 21/13 A2990 RMK AO2
                 SLP122 T02060133 $ =
2019-03-13 10:54 METAR KMEM 131554Z 17018G25KT 10SM BKN160 OVC250 19/13 A2994 RMK AO2 SLP135
                 T01890128 =
2019-03-13 09:54 METAR KMEM 131454Z 16017G24KT 10SM BKN180 OVC250 18/12 A2990 RMK AO2 PK WND
                 15027/1425 SLP121 T01830117 50001 =
2019-03-13 08:54 METAR KMEM 131354Z 16014KT 10SM BKN170 OVC250 18/11 A2992 RMK AO2 SLP130
                 T01780111 =
2019-03-13 07:54 METAR KMEM 131254Z 16008KT 10SM SCT150 BKN180 OVC200 17/11 A2992 RMK AO2 SLP129
                 T01720106 =
2019-03-13 06:54 METAR KMEM 131154Z 16010G17KT 10SM OVC220 17/10 A2989 RMK AO2 SLP120 T01720100
                 10172 20133 55016 =
2019-03-13 05:54 METAR KMEM 131054Z 16008KT 10SM BKN170 OVC250 16/09 A2988 RMK AO2 SLP117
                 T01610089 =
2019-03-13 04:54 METAR KMEM 130954Z 15017KT 10SM OVC150 16/09 A2988 RMK AO2 PRESFR SLP115
                 T01610094 =
2019-03-13 03:54 METAR KMEM 130854Z 16013KT 10SM OVC150 16/09 A2994 RMK AO2 SLP136 T01560089
                 58035 =
2019-03-13 02:54 METAR KMEM 130754Z 13007KT 10SM OVC160 14/08 A2998 RMK AO2 PRESFR SLP149
                 T01440078 =
2019-03-13 01:54 METAR KMEM 130654Z 11006KT 10SM BKN170 BKN250 13/08 A3002 RMK AO2 SLP164
                 T01330078 =
2019-03-13 00:54 METAR KMEM 130554Z 12007KT 10SM FEW250 14/08 A3004 RMK AO2 SLP172 T01390078
                 10167 20133 401830083 58023 =
2019-03-12 23:54 METAR KMEM 130454Z 10007KT 10SM SCT170 SCT200 OVC250 14/08 A3008 RMK AO2 SLP186
                 T01440078 =
2019-03-12 22:54 METAR KMEM 130354Z 10007KT 10SM FEW150 OVC250 15/08 A3010 RMK AO2 SLP191
                 T01500078 =
2019-03-12 21:54 METAR KMEM 130254Z 11009KT 10SM OVC180 16/08 A3011 RMK AO2 SLP196 T01560078
                 56007 =
2019-03-12 20:54 METAR KMEM 130154Z 11007KT 10SM BKN160 OVC200 16/08 A3012 RMK AO2 SLP200
                 T01610078 =
2019-03-12 19:54 METAR KMEM 130054Z 12007KT 10SM FEW170 BKN200 OVC250 16/08 A3012 RMK AO2 SLP198
                 T01560078 =
2019-03-12 18:54 METAR KMEM 122354Z COR 15006KT 10SM SCT130 BKN220 OVC250 17/08 A3013 RMK AO2
                 SLP203 T01670078 10183 20150 56016 =
2019-03-12 17:54 METAR KMEM 122254Z 14006KT 10SM BKN140 OVC250 18/08 A3014 RMK AO2 SLP207
                 T01780078 =
2019-03-12 16:54 METAR KMEM 122154Z 15010KT 10SM SCT130 OVC200 18/07 A3017 RMK AO2 SLP214
                 T01780072 =
2019-03-12 15:54 METAR KMEM 122054Z 13008KT 10SM FEW110 BKN150 OVC250 18/07 A3018 RMK AO2 SLP218
                 T01780072 56037 =
2019-03-12 14:54 METAR KMEM 121954Z 11005KT 10SM FEW110 SCT180 BKN250 18/07 A3020 RMK AO2 SLP225
                 T01780067 =
2019-03-12 13:54 METAR KMEM 121854Z 10011KT 10SM FEW100 SCT140 BKN250 17/06 A3020 RMK AO2 SLP225
                 T01670061 =
2019-03-12 12:54 METAR KMEM 121754Z 06005KT 10SM FEW075 SCT110 BKN220 16/06 A3029 RMK AO2 RAE03
                 SLP256 P0000 60000 T01560056 10156 20083 58019 =
2019-03-12 11:54 METAR KMEM 121654Z 00000KT 10SM -RA SCT043 BKN075 OVC100 13/05 A3032 RMK AO2
                 RAB02 SLP266 P0000 T01330050 =
2019-03-12 10:54 METAR KMEM 121554Z 10004KT 10SM FEW035 SCT080 BKN100 OVC200 12/04 A3033 RMK AO2
                 RAE28 SLP269 P0000 T01170039 =
2019-03-12 09:54 METAR KMEM 121454Z 13003KT 10SM -RA BKN100 BKN150 OVC250 11/04 A3035 RMK AO2
                 RAB51 SLP276 P0000 60000 T01110039 51015 =
2019-03-12 08:54 METAR KMEM 121354Z 00000KT 10SM SCT100 BKN150 OVC250 11/04 A3035 RMK AO2 SLP276
                 T01060039 =
2019-03-12 07:54 METAR KMEM 121254Z 00000KT 10SM FEW075 SCT150 OVC250 09/04 A3033 RMK AO2 SLP271
                 T00890039 =
2019-03-12 06:54 METAR KMEM 121154Z 09005KT 10SM OVC220 08/03 A3030 RMK AO2 SLP262 70020
                 T00830033 10106 20083 55000 $ =
2019-03-12 05:54 METAR KMEM 121054Z 08009KT 10SM OVC250 09/03 A3029 RMK AO2 SLP256 T00940033 $ =
2019-03-12 04:54 METAR KMEM 120954Z 07009KT 10SM OVC250 09/03 A3028 RMK AO2 SLP253 T00940033 $ =
2019-03-12 03:54 METAR KMEM 120854Z 07008KT 10SM OVC250 11/04 A3030 RMK AO2 SLP260 T01060039
                 58009 $ =
2019-03-12 02:54 METAR KMEM 120754Z 08005KT 10SM OVC250 10/04 A3031 RMK AO2 SLP263 T01000039 $ =
2019-03-12 01:54 METAR KMEM 120654Z 06004KT 10SM BKN250 09/04 A3033 RMK AO2 SLP271 T00940044 $ =
2019-03-12 00:54 METAR KMEM 120554Z 05006KT 10SM BKN250 10/05 A3033 RMK AO2 SLP270 T01000050
                 10133 20100 401780078 58002 $ =
2019-03-11 23:54 METAR KMEM 120454Z 04007KT 10SM FEW150 BKN250 11/05 A3034 RMK AO2 SLP275
                 T01060050 $ =
2019-03-11 22:54 METAR KMEM 120354Z 03007KT 10SM FEW150 OVC250 11/06 A3034 RMK AO2 SLP275
                 T01060056 $ =
2019-03-11 21:54 METAR KMEM 120254Z 03006KT 10SM FEW150 BKN250 11/06 A3034 RMK AO2 SLP273
                 T01110061 51011 $ =
2019-03-11 20:54 METAR KMEM 120154Z 02007KT 10SM FEW150 BKN250 12/07 A3033 RMK AO2 SLP269
                 T01170067 $ =
2019-03-11 19:54 METAR KMEM 120054Z 02007KT 10SM FEW150 BKN250 12/07 A3032 RMK AO2 SLP266
                 T01220067 $ =
2019-03-11 18:54 METAR KMEM 112354Z 36007KT 10SM SCT150 BKN250 13/07 A3030 RMK AO2 SLP261
                 T01330072 10178 20128 51004 $ =
2019-03-11 17:54 METAR KMEM 112254Z 34008KT 10SM FEW150 BKN250 15/07 A3030 RMK AO2 SLP259
                 T01500072 $ =
2019-03-11 16:54 METAR KMEM 112154Z 31007KT 10SM SCT180 BKN250 16/08 A3030 RMK AO2 SLP258
                 T01610083 $ =
2019-03-11 15:54 METAR KMEM 112054Z 33007KT 10SM FEW030 BKN250 17/09 A3029 RMK AO2 SLP256
                 T01670089 55013 $ =
2019-03-11 14:54 METAR KMEM 111954Z 18003KT 10SM FEW200 BKN250 16/09 A3029 RMK AO2 SLP256
                 T01610089 $ =
2019-03-11 13:54 METAR KMEM 111854Z 07005KT 10SM SCT200 BKN250 16/09 A3031 RMK AO2 SLP263
                 T01560089 $ =
2019-03-11 12:54 METAR KMEM 111754Z 00000KT 10SM BKN170 BKN220 13/08 A3033 RMK AO2 SLP269 60020
                 T01280083 10128 20078 58003 $ =
2019-03-11 11:54 METAR KMEM 111654Z 07005KT 10SM BKN170 BKN250 11/08 A3035 RMK AO2 SLP275
                 T01110083 $ =
2019-03-11 10:54 METAR KMEM 111554Z 09007KT 10SM SCT100 BKN170 BKN250 09/08 A3034 RMK AO2 SLP275
                 T00940078 $ =
2019-03-11 09:54 METAR KMEM 111454Z 07006KT 10SM FEW035 SCT100 OVC170 10/08 A3034 RMK AO2 RAE07
                 SLP274 60020 T01000078 51010 $ =
2019-03-11 08:54 METAR KMEM 111354Z COR 10006KT 8SM -RA OVC100 08/07 A3032 RMK AO2 SLP267 P0010
                 T00830067 $ =
2019-03-11 08:15 METAR KMEM 111315Z 11007KT 6SM RA BR FEW040 OVC090 08/06 A3032 RMK AO2 P0005
                 T00830061 =
2019-03-11 07:54 METAR KMEM 111254Z 09003KT 10SM -RA OVC090 09/06 A3034 RMK AO2 SLP274 P0010
                 T00890056 =
2019-03-11 06:54 METAR KMEM 111154Z 05005KT 10SM -RA OVC070 09/04 A3031 RMK AO2 RAB1056 SLP263
                 P0001 60001 70001 T00940039 10111 20094 50025 =
2019-03-11 05:54 METAR KMEM 111054Z 30005KT 10SM FEW043 BKN070 OVC085 10/03 A3032 RMK AO2
                 RAB36E53 SLP267 P0000 T01000033 $ =
2019-03-11 04:54 METAR KMEM 110954Z 05009KT 10SM OVC120 11/03 A3023 RMK AO2 SLP235 T01060028 $ =
2019-03-11 03:54 METAR KMEM 110854Z 05009KT 10SM OVC140 11/03 A3023 RMK AO2 SLP237 T01060033
                 58007 $ =
2019-03-11 02:54 METAR KMEM 110754Z 04009KT 10SM OVC150 11/03 A3025 RMK AO2 SLP243 T01060033 $ =
2019-03-11 01:54 METAR KMEM 110654Z 04008KT 10SM OVC150 11/03 A3026 RMK AO2 SLP246 T01110033 $ =
2019-03-11 00:54 METAR KMEM 110554Z 03007KT 10SM OVC140 11/04 A3025 RMK AO2 SLP244 T01110039
                 10133 20111 401670078 58001 $ =
2019-03-10 23:54 METAR KMEM 110454Z 01006KT 10SM SCT110 OVC140 12/04 A3026 RMK AO2 SLP247
                 T01170044 $ =
2019-03-10 22:54 METAR KMEM 110354Z 07006KT 10SM FEW110 BKN130 OVC200 12/04 A3025 RMK AO2 SLP243
                 T01170039 $ =
2019-03-10 21:54 METAR KMEM 110254Z 03007KT 10SM BKN130 OVC250 12/04 A3026 RMK AO2 SLP245
                 T01170044 53009 $ =
2019-03-10 20:54 METAR KMEM 110154Z 02010KT 10SM BKN140 BKN250 12/04 A3024 RMK AO2 SLP240
                 T01220044 $ =
2019-03-10 19:54 METAR KMEM 110054Z 02008KT 10SM FEW120 BKN150 BKN250 13/04 A3024 RMK AO2 SLP240
                 T01280039 $ =
2019-03-10 18:54 METAR KMEM 102354Z 01007KT 10SM FEW120 BKN150 BKN250 13/05 A3023 RMK AO2 SLP236
                 T01330050 10167 20133 53009 $ =
2019-03-10 17:54 METAR KMEM 102254Z 01009KT 10SM FEW120 BKN150 BKN250 14/05 A3021 RMK AO2 SLP228
                 T01440050 $ =
2019-03-10 16:54 METAR KMEM 102154Z 01010KT 10SM FEW120 FEW150 BKN250 16/05 A3020 RMK AO2 SLP224
                 T01610050 $ =
2019-03-10 15:54 METAR KMEM 102054Z 33008KT 10SM BKN250 15/06 A3020 RMK AO2 SLP226 T01500056
                 53000 $ =
2019-03-10 14:54 METAR KMEM 101954Z 32006KT 10SM BKN250 15/05 A3019 RMK AO2 SLP222 T01500050 $ =
2019-03-10 13:54 METAR KMEM 101854Z 35006KT 10SM BKN250 16/04 A3019 RMK AO2 SLP222 T01610044 $ =
2019-03-10 12:54 METAR KMEM 101754Z 31007KT 10SM BKN250 14/04 A3020 RMK AO2 SLP226 T01440044
                 10150 20083 51013 $ =
2019-03-10 11:54 METAR KMEM 101654Z 36005KT 10SM BKN250 14/04 A3018 RMK AO2 SLP218 T01440044 $ =
2019-03-10 10:54 METAR KMEM 101554Z 32004KT 10SM BKN250 12/05 A3018 RMK AO2 SLP219 T01220050 $ =
2019-03-10 09:54 METAR KMEM 101454Z 33007KT 10SM SCT250 12/06 A3016 RMK AO2 SLP213 T01170056
                 51030 $ =
2019-03-10 08:54 METAR KMEM 101354Z 34008KT 10SM BKN250 10/04 A3013 RMK AO2 SLP202 T01000044 $ =
2019-03-10 07:54 METAR KMEM 101254Z 36005KT 10SM BKN250 09/04 A3010 RMK AO2 SLP193 T00890044 $ =
2019-03-10 06:54 METAR KMEM 101154Z 35004KT 10SM FEW250 09/04 A3007 RMK AO2 SLP182 70048
                 T00890044 10150 20078 53029 $ =
2019-03-10 05:54 METAR KMEM 101054Z 32004KT 10SM CLR 09/06 A3003 RMK AO2 SLP168 T00940056 $ =
2019-03-10 04:54 METAR KMEM 100954Z 32004KT 10SM FEW250 10/07 A3000 RMK AO2 SLP157 T01000067 $ =
2019-03-10 03:54 METAR KMEM 100854Z 00000KT 10SM FEW250 12/07 A2999 RMK AO2 SLP152 T01170072
                 51027 $ =
2019-03-10 01:54 METAR KMEM 100754Z 27003KT 10SM CLR 13/09 A2997 RMK AO2 SLP147 T01330089 $ =
2019-03-10 00:54 METAR KMEM 100654Z 31005KT 10SM CLR 13/11 A2995 RMK AO2 SLP139 T01280106 $ =
2019-03-09 23:54 METAR KMEM 100554Z 27006KT 10SM FEW250 15/12 A2990 RMK AO2 SLP124 T01500117
                 10183 20150 401940117 53027 $ =
2019-03-09 22:54 METAR KMEM 100454Z 23010KT 10SM FEW250 16/13 A2987 RMK AO2 SLP113 T01610128 $ =
2019-03-09 21:54 METAR KMEM 100354Z 23011KT 10SM CLR 17/13 A2985 RMK AO2 SLP106 T01670128 $ =
2019-03-09 20:54 METAR KMEM 100254Z 23012G19KT 10SM CLR 17/14 A2982 RMK AO2 SLP096 T01720139
                 53036 $ =
2019-03-09 19:54 METAR KMEM 100154Z 22012G21KT 10SM CLR 18/14 A2978 RMK AO2 SLP082 T01780139 $ =
2019-03-09 18:54 METAR KMEM 100054Z 21012KT 10SM CLR 18/14 A2974 RMK AO2 SLP070 T01780139 $ =
2019-03-09 17:54 METAR KMEM 092354Z 22014G21KT 10SM FEW130 18/15 A2972 RMK AO2 SLP061 60035
                 T01830150 10194 20150 53014 $ =
2019-03-09 16:54 METAR KMEM 092254Z 21014G19KT 10SM FEW075 FEW090 SCT130 19/16 A2969 RMK AO2
                 SLP051 T01890161 $ =
2019-03-09 15:54 METAR KMEM 092154Z 23010KT 10SM FEW047 BKN070 BKN090 16/14 A2968 RMK AO2 PK WND
                 25028/2101 LTG DSNT SE RAE48 SLP047 P0005 T01610144 $ =
2019-03-09 14:54 METAR KMEM 092054Z 24015G28KT 7SM R36L/6000VP6000FT -RA BKN046 BKN060 OVC090
                 15/13 A2968 RMK AO2 PK WND 23033/2022 SLP047 P0013 60030 T01500133 56009 $ =
2019-03-09 13:54 METAR KMEM 091954Z 23012G26KT 10SM RA FEW015 BKN080 OVC095 18/16 A2968 RMK AO2
                 PK WND 18036/1857 LTG DSNT SE AND SW SLP049 P0007 T01780161 $ =
2019-03-09 13:20 METAR KMEM 091920Z 20022G32KT 8SM -RA SCT050 SCT070 OVC090 19/17 A2967 RMK AO2
                 PK WND 18036/1857 LTG DSNT ALQDS PRESRR P0003 T01890172 $ =
2019-03-09 12:54 METAR KMEM 091854Z 18030G42KT 6SM VCTS -RA BR FEW040CB BKN080 OVC110 18/17 A2962
                 RMK AO2 PK WND 17042/1850 LTG DSNT ALQDS TSE28B32E34 SLP028 CB SW MOV NE P0010
                 T01830167 $ =
2019-03-09 12:31 METAR KMEM 091831Z 19017G22KT 6SM R36L/5500VP6000FT VCTS +RA BR FEW036CB BKN060
                 OVC080 18/17 A2972 RMK AO2 PK WND 19027/1757 LTG DSNT ALQDS TSE28 CB E MOV NE
                 P0005 T01830172 $ =
2019-03-09 11:54 METAR KMEM 091754Z 19016G22KT 5SM TSRA BR BKN026CB OVC033 19/17 A2970 RMK AO2 PK
                 WND 19026/1705 LTG DSNT ALQDS RAB13 TSB13E15E33B34 SLP056 OCNL LTGICCC OHD TS
                 OHD MOV NE P0008 60013 T01890172 10194 20172 56018 $ =
2019-03-09 11:27 METAR KMEM 091727Z 19015G24KT 10SM -TSRA OVC026CB 19/17 A2970 RMK AO2 PK WND
                 19026/1705 LTG DSNT ALQDS RAB13 TSB13E15 OCNL LTGICCC W TS W MOV NE P0000
                 T01940172 $ =
2019-03-09 10:54 METAR KMEM 091654Z 19019G28KT 10SM BKN017 OVC025 19/18 A2972 RMK AO2 PK WND
                 20028/1653 LTG DSNT W RAE30 SLP061 P0000 T01940178 $ =
2019-03-09 09:54 METAR KMEM 091554Z 18017KT 10SM -RA OVC015CB 18/18 A2973 RMK AO2 LTG DSNT ALQDS
                 RAE46B52 TSE14B15 SLP065 P0004 T01830178 $ =
2019-03-09 09:46 METAR KMEM 091546Z 18019G23KT 10SM VCTS OVC015CB 18/18 A2974 RMK AO2 LTG DSNT
                 ALQDS RAE46 TSE14B15 P0003 T01830178 $ =
2019-03-09 09:23 METAR KMEM 091523Z COR 18016KT 10SM -TSRA BKN015CB OVC019 18/18 A2974 RMK AO2
                 LTG DSNT ALQDS TSE14B15 OCNL LTGICCC S TS S MOV NE P0002 T01830178 $ =
2019-03-09 08:54 METAR KMEM 091454Z COR 19015KT 10SM -TSRA OVC012CB 18/17 A2976 RMK AO2 LTG DSNT
                 S AND SW RAB50 TSB53 SLP075 OCNL LTGICCC S P0000 60001 T01830172 58018 $ =
2019-03-09 07:54 METAR KMEM 091354Z 17013KT 7SM OVC014 18/17 A2978 RMK AO2 RAB13E23 SLP083 P0001
                 T01780172 $ =
2019-03-09 07:26 METAR KMEM 091326Z 17015G19KT 7SM OVC012 18/17 A2979 RMK AO2 RAB13E23 P0000
                 T01780172 $ =
2019-03-09 06:54 METAR KMEM 091254Z 18013KT 7SM BKN007 OVC011 17/17 A2980 RMK AO2 SLP089
                 T01720172 $ =
2019-03-09 05:54 METAR KMEM 091154Z 17010KT 3SM BR BKN007 OVC010 17/17 A2981 RMK AO2
                 RAE23DZB35E51 CIG 004V008 SLP092 P0002 60004 70008 T01720172 10178 20117 56014 =
2019-03-09 05:51 METAR KMEM 091151Z 17013KT 3SM BR BKN007 OVC012 17/17 A2981 RMK AO2
                 RAE23DZB35E51 CIG 004V010 P0002 =
2019-03-09 05:07 METAR KMEM 091107Z 18012KT 2SM -RA BR OVC009 17/17 A2983 RMK AO2 CIG 005V013
                 P0000 T01720172 =
2019-03-09 04:54 METAR KMEM 091054Z 17009KT 4SM -RA BR OVC010 17/17 A2982 RMK AO2 RAB06E20B37 CIG
                 005V015 SLP096 P0002 T01720172 =
2019-03-09 03:54 METAR KMEM 090954Z 16008KT 7SM OVC011 17/16 A2983 RMK AO2 SLP099 T01670161 =
2019-03-09 02:54 METAR KMEM 090854Z 00000KT 6SM BR OVC011 13/13 A2985 RMK AO2 SLP107 60000
                 T01330133 56014 =
2019-03-09 01:54 METAR KMEM 090754Z 08005KT 5SM BR FEW004 OVC010 13/13 A2987 RMK AO2 RAE0658
                 SLP112 P0000 T01280128 =
2019-03-09 01:37 METAR KMEM 090737Z 08005KT 4SM BR FEW004 OVC010 12/12 A2987 RMK AO2 RAE0658
                 P0000 T01220122 =
2019-03-09 01:10 METAR KMEM 090710Z 08006KT 4SM BR OVC009 12/12 A2987 RMK AO2 RAE0658 P0000
                 T01220122 =
2019-03-09 00:54 METAR KMEM 090654Z 09008KT 4SM -RA BR FEW004 OVC010 12/12 A2987 RMK AO2
                 RAB05E14B48 SLP114 P0000 T01220122 =
2019-03-09 00:42 METAR KMEM 090642Z 09007KT 4SM BR FEW004 OVC010 12/12 A2988 RMK AO2 RAB05E14
                 P0000 T01220122 =
2019-03-09 00:32 METAR KMEM 090632Z 09007KT 4SM BR OVC010 12/12 A2988 RMK AO2 RAB05E14 P0000
                 T01220122 =
2019-03-08 23:54 METAR KMEM 090554Z 09007KT 3SM BR BKN003 OVC008 12/12 A2989 RMK AO2
                 RAB00E30DZB43E52 SLP121 P0000 60002 T01170117 10139 20111 401720083 58014 =
2019-03-08 22:54 METAR KMEM 090454Z 08006KT 2SM BR OVC002 12/12 A2991 RMK AO2 DZE29 SLP128 P0000
                 T01170117 =
2019-03-08 21:54 METAR KMEM 090354Z 07006KT 2SM -DZ BR OVC002 12/12 A2993 RMK AO2 RAE11DZB53
                 SLP135 P0001 T01170117 =
2019-03-08 20:54 METAR KMEM 090254Z 05004KT 2SM -RA BR OVC002 12/12 A2993 RMK AO2 RAB49 SLP135
                 P0001 60001 T01170117 50002 =
2019-03-08 19:54 METAR KMEM 090154Z 05006KT 2SM BR OVC002 12/12 A2994 RMK AO2 RAE00 SLP137 P0000
                 T01170117 =
2019-03-08 18:54 METAR KMEM 090054Z 05007KT 2SM -RA BR OVC004 13/13 A2993 RMK AO2 RAB02E11B27 CIG
                 002V008 SLP132 P0000 T01280128 =
2019-03-08 17:57 METAR KMEM 082357Z 03003KT 2SM BR BKN003 OVC008 14/14 A2993 RMK AO2 T01390139 =
2019-03-08 17:54 METAR KMEM 082354Z 01004KT 3SM BR OVC006 14/14 A2993 RMK AO2 RAE22 CIG 002V009
                 SLP133 P0000 60002 T01390139 10172 20139 53002 =
2019-03-08 17:37 METAR KMEM 082337Z 05004KT 3SM BR OVC008 14/14 A2992 RMK AO2 RAE22 P0000
                 T01390139 =
2019-03-08 16:54 METAR KMEM 082254Z 05003KT 4SM -RA BR FEW006 OVC010 14/14 A2991 RMK AO2 SLP128
                 P0001 T01390139 =
2019-03-08 15:59 METAR KMEM 082159Z 02003KT 4SM -RA BR FEW006 OVC010 14/14 A2992 RMK AO2 P0000
                 T01440139 =
2019-03-08 15:54 METAR KMEM 082154Z 01004KT 7SM -RA OVC010 14/14 A2992 RMK AO2 RAB2059 SLP130
                 P0000 T01440139 =
2019-03-08 14:54 METAR KMEM 082054Z 36005KT 10SM OVC012 14/14 A2992 RMK AO2 SLP131 60001
                 T01440139 56017 =
2019-03-08 13:54 METAR KMEM 081954Z 24006KT 10SM OVC012 17/15 A2992 RMK AO2 RAE03 SLP132 P0000
                 T01720150 =
2019-03-08 12:54 METAR KMEM 081854Z 21007G16KT 10SM -RA OVC012 16/14 A2995 RMK AO2 RAB49 SLP139
                 P0001 T01610144 $ =
2019-03-08 11:54 METAR KMEM 081754Z 21010KT 10SM OVC011 16/14 A2997 RMK AO2 RAB33E42 SLP148 P0000
                 60000 T01610139 10161 20089 58007 $ =
2019-03-08 10:54 METAR KMEM 081654Z 21009KT 10SM OVC011 15/13 A2999 RMK AO2 SLP154 T01500133 $ =
2019-03-08 09:59 METAR KMEM 081559Z 21009KT 10SM OVC009 14/13 A3000 RMK AO2 T01440128 $ =
2019-03-08 09:54 METAR KMEM 081554Z 20008KT 10SM OVC010 14/13 A3000 RMK AO2 SLP157 T01440128 $ =
2019-03-08 09:23 METAR KMEM 081523Z 19008KT 8SM OVC010 14/12 A2999 RMK AO2 T01390122 $ =
2019-03-08 08:54 METAR KMEM 081454Z 19009KT 8SM OVC009 13/12 A2999 RMK AO2 SLP157 60000 T01280117
                 55002 $ =
2019-03-08 07:54 METAR KMEM 081354Z 18005KT 8SM OVC008 11/11 A2998 RMK AO2 SLP153 T01110106 $ =
2019-03-08 06:54 METAR KMEM 081254Z 14008KT 6SM BR OVC008 10/09 A2998 RMK AO2 DZE11 SLP153 P0000
                 T01000089 $ =
2019-03-08 05:54 METAR KMEM 081154Z 11005KT 8SM -DZ OVC009 09/08 A3000 RMK AO2 DZB47 SLP159 P0000
                 60001 70001 T00890078 10094 20083 56011 $ =
2019-03-08 05:49 METAR KMEM 081149Z 10004KT 8SM -DZ OVC009 09/08 A3001 RMK AO2 DZB47 P0000 $ =
2019-03-08 04:54 METAR KMEM 081054Z 16005KT 9SM OVC013 09/07 A3001 RMK AO2 RAE14 SLP161 P0000
                 T00940072 =
2019-03-08 04:22 METAR KMEM 081022Z 15003KT 9SM OVC014 09/07 A3001 RMK AO2 RAE14 P0000 T00940072
                 =
2019-03-08 03:54 METAR KMEM 080954Z 15004KT 6SM -RA OVC015 09/07 A3000 RMK AO2 RAB33 SLP160 P0001
                 T00940067 =
2019-03-08 02:54 METAR KMEM 080854Z 00000KT 10SM OVC018 09/07 A3003 RMK AO2 SLP170 60000
                 T00890067 55013 =
2019-03-08 01:54 METAR KMEM 080754Z 12004KT 8SM OVC018 08/06 A3003 RMK AO2 RAE54 SLP170 P0000
                 T00830061 =
2019-03-08 00:54 METAR KMEM 080654Z 12004KT 9SM -RA OVC022 09/06 A3006 RMK AO2 RAE11B27 SLP179
                 P0000 T00890056 =
2019-03-07 23:54 METAR KMEM 080554Z 13004KT 10SM -RA OVC025 09/05 A3007 RMK AO2 RAB01 SLP183
                 P0000 60000 T00890050 10100 20089 401061006 58005 =
2019-03-07 22:54 METAR KMEM 080454Z VRB04KT 10SM OVC027 09/04 A3009 RMK AO2
                 RAB02E11B45E52DZB39E45 SLP187 P0000 T00940039 =
2019-03-07 21:54 METAR KMEM 080354Z 17008KT 10SM OVC024 09/03 A3009 RMK AO2 RAB17E46 SLP188 P0000
                 T00940028 =
2019-03-07 21:21 METAR KMEM 080321Z 14008KT 7SM -RA OVC027 09/01 A3009 RMK AO2 RAB17 P0000
                 T00940011 =
2019-03-07 20:54 METAR KMEM 080254Z 13007KT 10SM OVC030 09/01 A3009 RMK AO2 SLP188 60000
                 T00890011 58001 =
2019-03-07 19:54 METAR KMEM 080154Z 14007KT 10SM OVC031 09/01 A3009 RMK AO2 RAE05B29E47 SLP191
                 P0000 T00940011 =
2019-03-07 18:54 METAR KMEM 080054Z 14006KT 10SM -RA OVC032 09/M01 A3011 RMK AO2 RAB14 SLP198
                 P0000 T00941006 =
2019-03-07 17:54 METAR KMEM 072354Z 13007KT 10SM OVC032 10/M01 A3009 RMK AO2 SLP190 T01001006
                 10106 20094 56022 =
2019-03-07 16:54 METAR KMEM 072254Z 14008KT 10SM OVC035 10/M01 A3010 RMK AO2 SLP192 VCSH
                 T01001006 =
2019-03-07 15:54 METAR KMEM 072154Z 16011KT 10SM OVC035 11/M02 A3013 RMK AO2 SLP204 T01061017 =
2019-03-07 15:08 METAR KMEM 072108Z 15009KT 10SM OVC037 10/M04 A3015 RMK AO2 T01001039 =
2019-03-07 14:54 METAR KMEM 072054Z 15009KT 10SM OVC040 10/M04 A3016 RMK AO2 SLP212 T01001039
                 58033 =
2019-03-07 13:54 METAR KMEM 071954Z 13006KT 10SM OVC045 10/M04 A3019 RMK AO2 SLP225 T01001044 $ =
2019-03-07 12:54 METAR KMEM 071854Z 15007KT 10SM OVC050 10/M04 A3022 RMK AO2 SLP234 T01001044 $ =
2019-03-07 11:54 METAR KMEM 071754Z 16007KT 10SM OVC050 09/M05 A3025 RMK AO2 SLP246 T00941050
                 10094 20011 58020 =
2019-03-07 10:54 METAR KMEM 071654Z 17008KT 10SM OVC050 08/M05 A3028 RMK AO2 SLP255 T00781050 =
2019-03-07 09:54 METAR KMEM 071554Z 15008KT 10SM SCT042 OVC050 06/M06 A3030 RMK AO2 SLP262
                 T00611056 =
2019-03-07 08:54 METAR KMEM 071454Z 15010KT 10SM OVC050 05/M06 A3031 RMK AO2 SLP266 T00501061
                 58006 $ =
2019-03-07 07:54 METAR KMEM 071354Z 13004KT 10SM OVC055 04/M07 A3032 RMK AO2 SLP269 T00391067 =
2019-03-07 06:54 METAR KMEM 071254Z 14005KT 10SM OVC060 02/M07 A3033 RMK AO2 SLP274 T00221067 =
2019-03-07 05:54 METAR KMEM 071154Z 10005KT 10SM OVC075 01/M07 A3033 RMK AO2 SLP273 T00111067
                 10017 21006 55002 =
2019-03-07 04:54 METAR KMEM 071054Z 09005KT 10SM OVC075 01/M07 A3033 RMK AO2 SLP270 T00111072 =
2019-03-07 03:54 METAR KMEM 070954Z 12004KT 10SM SCT250 01/M07 A3033 RMK AO2 SLP273 T00061072 =
2019-03-07 02:54 METAR KMEM 070854Z 10006KT 10SM FEW200 00/M07 A3034 RMK AO2 SLP274 T00001072
                 58004 =
2019-03-07 01:54 METAR KMEM 070754Z 09007KT 10SM FEW250 M01/M07 A3034 RMK AO2 SLP278 T10061072 =
2019-03-07 00:54 METAR KMEM 070654Z 10003KT 10SM FEW250 01/M08 A3036 RMK AO2 SLP282 T00061078 =
2019-03-06 23:54 METAR KMEM 070554Z 11004KT 10SM CLR 02/M08 A3035 RMK AO2 SLP278 T00171083 10039
                 20011 400671044 56006 =
2019-03-06 22:54 METAR KMEM 070454Z 00000KT 10SM CLR 01/M08 A3035 RMK AO2 SLP278 T00111083 =
2019-03-06 21:54 METAR KMEM 070354Z 10006KT 10SM CLR 01/M08 A3036 RMK AO2 SLP282 T00111078 =
2019-03-06 20:54 METAR KMEM 070254Z 00000KT 10SM CLR 03/M09 A3037 RMK AO2 SLP285 T00281094 53001
                 =
2019-03-06 19:54 METAR KMEM 070154Z 00000KT 10SM CLR 03/M09 A3037 RMK AO2 SLP286 T00281094 =
2019-03-06 18:54 METAR KMEM 070054Z 29004KT 10SM FEW250 02/M11 A3036 RMK AO2 SLP283 T00221106 =
2019-03-06 17:54 METAR KMEM 062354Z 29004KT 10SM BKN250 03/M08 A3036 RMK AO2 SLP284 T00331078
                 10067 20022 56026 =
2019-03-06 16:54 METAR KMEM 062254Z 33005KT 10SM BKN250 07/M09 A3039 RMK AO2 SLP291 T00671094 =
2019-03-06 15:54 METAR KMEM 062154Z 31003KT 10SM BKN250 06/M11 A3040 RMK AO2 SLP297 T00561106 =
2019-03-06 14:54 METAR KMEM 062054Z 29007KT 10SM SCT250 06/M11 A3044 RMK AO2 SLP310 T00561106
                 58019 =

Support USWX by starting your Amazon purchase here.